sensor_id;sensor_type;location;lat;lon;timestamp;temperature;humidity
20568;DHT22;10442;49.932;11.592;2024-02-15T00:00:06;12.80;82.40
20568;DHT22;10442;49.932;11.592;2024-02-15T00:02:36;12.80;82.40
20568;DHT22;10442;49.932;11.592;2024-02-15T00:05:04;12.80;82.40
20568;DHT22;10442;49.932;11.592;2024-02-15T00:07:31;12.80;82.30
20568;DHT22;10442;49.932;11.592;2024-02-15T00:09:59;12.80;82.20
20568;DHT22;10442;49.932;11.592;2024-02-15T00:12:26;12.80;82.20
20568;DHT22;10442;49.932;11.592;2024-02-15T00:14:54;12.80;82.10
20568;DHT22;10442;49.932;11.592;2024-02-15T00:17:21;12.80;82.00
20568;DHT22;10442;49.932;11.592;2024-02-15T00:19:51;12.80;82.00
20568;DHT22;10442;49.932;11.592;2024-02-15T00:22:18;12.80;82.00
20568;DHT22;10442;49.932;11.592;2024-02-15T00:24:48;12.80;82.10
20568;DHT22;10442;49.932;11.592;2024-02-15T00:27:16;12.80;82.10
20568;DHT22;10442;49.932;11.592;2024-02-15T00:29:43;12.80;82.00
20568;DHT22;10442;49.932;11.592;2024-02-15T00:32:11;12.80;82.00
20568;DHT22;10442;49.932;11.592;2024-02-15T00:34:39;12.90;82.10
20568;DHT22;10442;49.932;11.592;2024-02-15T00:37:08;12.80;82.00
20568;DHT22;10442;49.932;11.592;2024-02-15T00:39:35;12.80;82.10
20568;DHT22;10442;49.932;11.592;2024-02-15T00:42:03;12.80;82.10
20568;DHT22;10442;49.932;11.592;2024-02-15T00:44:31;12.80;82.00
20568;DHT22;10442;49.932;11.592;2024-02-15T00:46:59;12.80;81.90
20568;DHT22;10442;49.932;11.592;2024-02-15T00:49:26;12.80;82.00
20568;DHT22;10442;49.932;11.592;2024-02-15T00:51:55;12.80;81.90
20568;DHT22;10442;49.932;11.592;2024-02-15T00:54:24;12.80;81.90
20568;DHT22;10442;49.932;11.592;2024-02-15T00:56:51;12.80;82.00
20568;DHT22;10442;49.932;11.592;2024-02-15T00:59:20;12.80;82.10
20568;DHT22;10442;49.932;11.592;2024-02-15T01:01:48;12.80;82.00
20568;DHT22;10442;49.932;11.592;2024-02-15T01:04:15;12.80;82.00
20568;DHT22;10442;49.932;11.592;2024-02-15T01:06:45;12.90;82.10
20568;DHT22;10442;49.932;11.592;2024-02-15T01:09:13;12.80;82.10
20568;DHT22;10442;49.932;11.592;2024-02-15T01:11:40;12.80;82.00
20568;DHT22;10442;49.932;11.592;2024-02-15T01:14:07;12.80;82.20
20568;DHT22;10442;49.932;11.592;2024-02-15T01:16:36;12.90;82.10
20568;DHT22;10442;49.932;11.592;2024-02-15T01:19:04;12.80;82.00
20568;DHT22;10442;49.932;11.592;2024-02-15T01:21:33;12.90;82.20
20568;DHT22;10442;49.932;11.592;2024-02-15T01:24:03;12.80;82.10
20568;DHT22;10442;49.932;11.592;2024-02-15T01:26:33;12.80;82.10
20568;DHT22;10442;49.932;11.592;2024-02-15T01:29:01;12.80;82.10
20568;DHT22;10442;49.932;11.592;2024-02-15T01:31:30;12.80;82.10
20568;DHT22;10442;49.932;11.592;2024-02-15T01:33:57;12.80;82.10
20568;DHT22;10442;49.932;11.592;2024-02-15T01:36:25;12.80;82.20
20568;DHT22;10442;49.932;11.592;2024-02-15T01:38:53;12.90;82.30
20568;DHT22;10442;49.932;11.592;2024-02-15T01:41:20;12.80;82.20
20568;DHT22;10442;49.932;11.592;2024-02-15T01:43:48;12.80;82.10
20568;DHT22;10442;49.932;11.592;2024-02-15T01:46:17;12.80;82.10
20568;DHT22;10442;49.932;11.592;2024-02-15T01:48:45;12.80;82.10
20568;DHT22;10442;49.932;11.592;2024-02-15T01:51:13;12.80;82.20
20568;DHT22;10442;49.932;11.592;2024-02-15T01:53:44;12.80;82.20
20568;DHT22;10442;49.932;11.592;2024-02-15T01:56:14;12.80;82.20
20568;DHT22;10442;49.932;11.592;2024-02-15T01:58:43;12.80;82.30
20568;DHT22;10442;49.932;11.592;2024-02-15T02:01:12;12.80;82.10
20568;DHT22;10442;49.932;11.592;2024-02-15T02:03:40;12.80;82.00
20568;DHT22;10442;49.932;11.592;2024-02-15T02:06:09;12.80;82.10
20568;DHT22;10442;49.932;11.592;2024-02-15T02:08:37;12.80;82.10
20568;DHT22;10442;49.932;11.592;2024-02-15T02:11:04;12.80;82.10
20568;DHT22;10442;49.932;11.592;2024-02-15T02:13:33;12.80;82.20
20568;DHT22;10442;49.932;11.592;2024-02-15T02:16:02;12.80;82.10
20568;DHT22;10442;49.932;11.592;2024-02-15T02:18:29;12.80;81.90
20568;DHT22;10442;49.932;11.592;2024-02-15T02:20:56;12.80;82.10
20568;DHT22;10442;49.932;11.592;2024-02-15T02:23:26;12.80;82.20
20568;DHT22;10442;49.932;11.592;2024-02-15T02:25:55;12.80;82.10
20568;DHT22;10442;49.932;11.592;2024-02-15T02:28:23;12.80;82.10
20568;DHT22;10442;49.932;11.592;2024-02-15T02:30:50;12.80;82.00
20568;DHT22;10442;49.932;11.592;2024-02-15T02:33:18;12.80;82.00
20568;DHT22;10442;49.932;11.592;2024-02-15T02:35:50;12.80;81.90
20568;DHT22;10442;49.932;11.592;2024-02-15T02:38:18;12.70;82.50
20568;DHT22;10442;49.932;11.592;2024-02-15T02:40:46;12.80;81.70
20568;DHT22;10442;49.932;11.592;2024-02-15T02:43:14;12.70;81.60
20568;DHT22;10442;49.932;11.592;2024-02-15T02:45:43;12.70;81.60
20568;DHT22;10442;49.932;11.592;2024-02-15T02:48:14;12.70;81.70
20568;DHT22;10442;49.932;11.592;2024-02-15T02:50:42;12.60;81.80
20568;DHT22;10442;49.932;11.592;2024-02-15T02:53:10;12.70;81.90
20568;DHT22;10442;49.932;11.592;2024-02-15T02:55:38;12.60;81.90
20568;DHT22;10442;49.932;11.592;2024-02-15T02:58:07;12.60;82.00
20568;DHT22;10442;49.932;11.592;2024-02-15T03:00:36;12.60;82.10
20568;DHT22;10442;49.932;11.592;2024-02-15T03:03:04;12.60;82.20
20568;DHT22;10442;49.932;11.592;2024-02-15T03:05:32;12.60;82.30
20568;DHT22;10442;49.932;11.592;2024-02-15T03:08:00;12.60;82.40
20568;DHT22;10442;49.932;11.592;2024-02-15T03:10:28;12.60;82.50
20568;DHT22;10442;49.932;11.592;2024-02-15T03:12:56;12.70;82.70
20568;DHT22;10442;49.932;11.592;2024-02-15T03:15:24;12.70;82.70
20568;DHT22;10442;49.932;11.592;2024-02-15T03:17:52;12.70;82.70
20568;DHT22;10442;49.932;11.592;2024-02-15T03:20:19;12.70;82.70
20568;DHT22;10442;49.932;11.592;2024-02-15T03:22:58;12.70;82.70
20568;DHT22;10442;49.932;11.592;2024-02-15T03:25:27;12.80;82.70
20568;DHT22;10442;49.932;11.592;2024-02-15T03:27:59;12.80;82.80
20568;DHT22;10442;49.932;11.592;2024-02-15T03:30:32;12.80;82.70
20568;DHT22;10442;49.932;11.592;2024-02-15T03:33:01;12.80;82.60
20568;DHT22;10442;49.932;11.592;2024-02-15T03:35:33;12.80;82.60
20568;DHT22;10442;49.932;11.592;2024-02-15T03:38:01;12.80;82.70
20568;DHT22;10442;49.932;11.592;2024-02-15T03:40:30;12.90;82.90
20568;DHT22;10442;49.932;11.592;2024-02-15T03:42:59;12.90;82.80
20568;DHT22;10442;49.932;11.592;2024-02-15T03:45:27;12.90;82.80
20568;DHT22;10442;49.932;11.592;2024-02-15T03:47:54;12.90;82.90
20568;DHT22;10442;49.932;11.592;2024-02-15T03:50:25;12.90;83.00
20568;DHT22;10442;49.932;11.592;2024-02-15T03:52:53;12.90;83.00
20568;DHT22;10442;49.932;11.592;2024-02-15T03:55:20;12.90;83.80
20568;DHT22;10442;49.932;11.592;2024-02-15T03:57:50;12.90;83.00
20568;DHT22;10442;49.932;11.592;2024-02-15T04:00:19;12.90;83.20
20568;DHT22;10442;49.932;11.592;2024-02-15T04:02:50;12.90;83.30
20568;DHT22;10442;49.932;11.592;2024-02-15T04:05:18;13.00;83.30
20568;DHT22;10442;49.932;11.592;2024-02-15T04:07:47;13.00;83.40
20568;DHT22;10442;49.932;11.592;2024-02-15T04:10:16;13.00;83.40
20568;DHT22;10442;49.932;11.592;2024-02-15T04:12:45;13.00;83.50
20568;DHT22;10442;49.932;11.592;2024-02-15T04:15:13;13.00;83.50
20568;DHT22;10442;49.932;11.592;2024-02-15T04:17:44;13.00;83.50
20568;DHT22;10442;49.932;11.592;2024-02-15T04:20:14;13.00;83.50
20568;DHT22;10442;49.932;11.592;2024-02-15T04:22:44;13.00;83.60
20568;DHT22;10442;49.932;11.592;2024-02-15T04:25:12;13.10;83.60
20568;DHT22;10442;49.932;11.592;2024-02-15T04:27:45;13.00;83.50
20568;DHT22;10442;49.932;11.592;2024-02-15T04:30:14;13.10;83.40
20568;DHT22;10442;49.932;11.592;2024-02-15T04:32:43;13.10;83.40
20568;DHT22;10442;49.932;11.592;2024-02-15T04:35:11;13.10;83.30
20568;DHT22;10442;49.932;11.592;2024-02-15T04:37:41;13.10;83.20
20568;DHT22;10442;49.932;11.592;2024-02-15T04:40:10;13.10;83.20
20568;DHT22;10442;49.932;11.592;2024-02-15T04:42:41;13.10;83.20
20568;DHT22;10442;49.932;11.592;2024-02-15T04:45:12;13.10;83.20
20568;DHT22;10442;49.932;11.592;2024-02-15T04:47:41;13.10;83.20
20568;DHT22;10442;49.932;11.592;2024-02-15T04:50:13;13.10;83.20
20568;DHT22;10442;49.932;11.592;2024-02-15T04:52:40;13.10;83.30
20568;DHT22;10442;49.932;11.592;2024-02-15T04:55:13;13.10;83.30
20568;DHT22;10442;49.932;11.592;2024-02-15T04:57:42;13.20;83.30
20568;DHT22;10442;49.932;11.592;2024-02-15T05:00:11;13.20;83.30
20568;DHT22;10442;49.932;11.592;2024-02-15T05:02:41;13.20;84.00
20568;DHT22;10442;49.932;11.592;2024-02-15T05:05:10;13.20;83.20
20568;DHT22;10442;49.932;11.592;2024-02-15T05:07:38;13.20;83.20
20568;DHT22;10442;49.932;11.592;2024-02-15T05:10:10;13.20;83.10
20568;DHT22;10442;49.932;11.592;2024-02-15T05:12:38;13.20;83.00
20568;DHT22;10442;49.932;11.592;2024-02-15T05:15:08;13.20;82.90
20568;DHT22;10442;49.932;11.592;2024-02-15T05:17:40;13.20;82.90
20568;DHT22;10442;49.932;11.592;2024-02-15T05:20:10;13.20;82.80
20568;DHT22;10442;49.932;11.592;2024-02-15T05:22:40;13.20;82.70
20568;DHT22;10442;49.932;11.592;2024-02-15T05:25:15;13.20;82.60
20568;DHT22;10442;49.932;11.592;2024-02-15T05:27:43;13.20;82.60
20568;DHT22;10442;49.932;11.592;2024-02-15T05:30:12;13.20;82.60
20568;DHT22;10442;49.932;11.592;2024-02-15T05:32:43;13.20;82.60
20568;DHT22;10442;49.932;11.592;2024-02-15T05:35:12;13.20;82.60
20568;DHT22;10442;49.932;11.592;2024-02-15T05:37:43;13.20;82.80
20568;DHT22;10442;49.932;11.592;2024-02-15T05:40:11;13.20;82.80
20568;DHT22;10442;49.932;11.592;2024-02-15T05:42:43;13.20;82.70
20568;DHT22;10442;49.932;11.592;2024-02-15T05:47:53;13.20;82.50
20568;DHT22;10442;49.932;11.592;2024-02-15T05:50:21;13.10;82.50
20568;DHT22;10442;49.932;11.592;2024-02-15T05:52:49;13.10;82.60
20568;DHT22;10442;49.932;11.592;2024-02-15T05:55:16;13.10;82.60
20568;DHT22;10442;49.932;11.592;2024-02-15T05:57:46;13.10;82.60
20568;DHT22;10442;49.932;11.592;2024-02-15T06:00:15;13.10;82.60
20568;DHT22;10442;49.932;11.592;2024-02-15T06:02:51;13.10;82.50
20568;DHT22;10442;49.932;11.592;2024-02-15T06:05:20;13.10;82.50
20568;DHT22;10442;49.932;11.592;2024-02-15T06:07:47;13.10;82.60
20568;DHT22;10442;49.932;11.592;2024-02-15T06:10:16;13.00;82.70
20568;DHT22;10442;49.932;11.592;2024-02-15T06:12:45;13.00;82.80
20568;DHT22;10442;49.932;11.592;2024-02-15T06:15:13;13.00;83.00
20568;DHT22;10442;49.932;11.592;2024-02-15T06:17:44;13.00;83.00
20568;DHT22;10442;49.932;11.592;2024-02-15T06:20:13;13.00;83.00
20568;DHT22;10442;49.932;11.592;2024-02-15T06:22:41;13.00;83.20
20568;DHT22;10442;49.932;11.592;2024-02-15T06:25:10;13.00;83.10
20568;DHT22;10442;49.932;11.592;2024-02-15T06:27:38;13.10;83.20
20568;DHT22;10442;49.932;11.592;2024-02-15T06:30:11;13.10;83.10
20568;DHT22;10442;49.932;11.592;2024-02-15T06:32:58;13.10;83.10
20568;DHT22;10442;49.932;11.592;2024-02-15T06:35:46;13.10;83.10
20568;DHT22;10442;49.932;11.592;2024-02-15T06:38:32;13.10;83.20
20568;DHT22;10442;49.932;11.592;2024-02-15T06:41:19;13.10;83.20
20568;DHT22;10442;49.932;11.592;2024-02-15T06:43:50;13.10;83.20
20568;DHT22;10442;49.932;11.592;2024-02-15T06:46:19;13.10;83.10
20568;DHT22;10442;49.932;11.592;2024-02-15T06:48:49;13.10;83.00
20568;DHT22;10442;49.932;11.592;2024-02-15T06:51:17;13.10;83.00
20568;DHT22;10442;49.932;11.592;2024-02-15T06:53:45;13.10;83.00
20568;DHT22;10442;49.932;11.592;2024-02-15T06:56:13;13.10;83.00
20568;DHT22;10442;49.932;11.592;2024-02-15T06:58:41;13.10;83.10
20568;DHT22;10442;49.932;11.592;2024-02-15T07:01:09;13.10;83.00
20568;DHT22;10442;49.932;11.592;2024-02-15T07:03:45;13.20;83.00
20568;DHT22;10442;49.932;11.592;2024-02-15T07:06:13;13.20;82.80
20568;DHT22;10442;49.932;11.592;2024-02-15T07:08:42;13.20;82.70
20568;DHT22;10442;49.932;11.592;2024-02-15T07:11:10;13.20;82.70
20568;DHT22;10442;49.932;11.592;2024-02-15T07:13:40;13.20;82.70
20568;DHT22;10442;49.932;11.592;2024-02-15T07:16:08;13.20;82.70
20568;DHT22;10442;49.932;11.592;2024-02-15T07:18:36;13.20;82.70
20568;DHT22;10442;49.932;11.592;2024-02-15T07:21:05;13.20;82.70
20568;DHT22;10442;49.932;11.592;2024-02-15T07:23:38;13.20;82.80
20568;DHT22;10442;49.932;11.592;2024-02-15T07:26:06;13.20;82.80
20568;DHT22;10442;49.932;11.592;2024-02-15T07:28:36;13.20;82.70
20568;DHT22;10442;49.932;11.592;2024-02-15T07:31:04;13.20;82.60
20568;DHT22;10442;49.932;11.592;2024-02-15T07:33:32;13.30;82.70
20568;DHT22;10442;49.932;11.592;2024-02-15T07:35:59;13.20;82.70
20568;DHT22;10442;49.932;11.592;2024-02-15T07:38:27;13.30;82.80
20568;DHT22;10442;49.932;11.592;2024-02-15T07:40:57;13.30;82.80
20568;DHT22;10442;49.932;11.592;2024-02-15T07:43:24;13.30;82.80
20568;DHT22;10442;49.932;11.592;2024-02-15T07:45:52;13.30;82.80
20568;DHT22;10442;49.932;11.592;2024-02-15T07:48:20;13.30;82.80
20568;DHT22;10442;49.932;11.592;2024-02-15T07:50:48;13.30;82.80
20568;DHT22;10442;49.932;11.592;2024-02-15T07:53:16;13.30;82.90
20568;DHT22;10442;49.932;11.592;2024-02-15T07:55:44;13.30;82.70
20568;DHT22;10442;49.932;11.592;2024-02-15T07:58:12;13.40;82.70
20568;DHT22;10442;49.932;11.592;2024-02-15T08:00:41;13.40;82.70
20568;DHT22;10442;49.932;11.592;2024-02-15T08:03:09;13.40;82.70
20568;DHT22;10442;49.932;11.592;2024-02-15T08:05:37;13.40;82.50
20568;DHT22;10442;49.932;11.592;2024-02-15T08:08:05;13.50;82.60
20568;DHT22;10442;49.932;11.592;2024-02-15T08:10:34;13.50;82.60
20568;DHT22;10442;49.932;11.592;2024-02-15T08:13:02;13.50;82.60
20568;DHT22;10442;49.932;11.592;2024-02-15T08:15:30;13.50;83.60
20568;DHT22;10442;49.932;11.592;2024-02-15T08:18:00;13.50;83.10
20568;DHT22;10442;49.932;11.592;2024-02-15T08:20:32;13.60;83.20
20568;DHT22;10442;49.932;11.592;2024-02-15T08:23:01;13.70;83.30
20568;DHT22;10442;49.932;11.592;2024-02-15T08:25:29;13.80;83.20
20568;DHT22;10442;49.932;11.592;2024-02-15T08:27:59;13.80;83.10
20568;DHT22;10442;49.932;11.592;2024-02-15T08:30:33;13.90;82.80
20568;DHT22;10442;49.932;11.592;2024-02-15T08:33:01;14.00;82.50
20568;DHT22;10442;49.932;11.592;2024-02-15T08:35:29;14.10;82.30
20568;DHT22;10442;49.932;11.592;2024-02-15T08:37:59;14.10;82.20
20568;DHT22;10442;49.932;11.592;2024-02-15T08:40:27;14.20;82.10
20568;DHT22;10442;49.932;11.592;2024-02-15T08:42:56;14.20;81.70
20568;DHT22;10442;49.932;11.592;2024-02-15T08:45:25;14.30;81.50
20568;DHT22;10442;49.932;11.592;2024-02-15T08:47:55;14.40;81.40
20568;DHT22;10442;49.932;11.592;2024-02-15T08:50:23;14.40;81.10
20568;DHT22;10442;49.932;11.592;2024-02-15T08:52:52;14.50;81.10
20568;DHT22;10442;49.932;11.592;2024-02-15T08:55:21;14.60;81.00
20568;DHT22;10442;49.932;11.592;2024-02-15T08:57:54;14.70;80.90
20568;DHT22;10442;49.932;11.592;2024-02-15T09:00:22;14.70;80.90
20568;DHT22;10442;49.932;11.592;2024-02-15T09:02:54;14.80;80.60
20568;DHT22;10442;49.932;11.592;2024-02-15T09:05:24;14.90;80.10
20568;DHT22;10442;49.932;11.592;2024-02-15T09:07:52;15.00;79.80
20568;DHT22;10442;49.932;11.592;2024-02-15T09:10:20;15.10;79.40
20568;DHT22;10442;49.932;11.592;2024-02-15T09:12:52;15.20;79.00
20568;DHT22;10442;49.932;11.592;2024-02-15T09:15:20;15.20;78.60
20568;DHT22;10442;49.932;11.592;2024-02-15T09:17:49;15.20;78.10
20568;DHT22;10442;49.932;11.592;2024-02-15T09:20:18;15.20;77.80
20568;DHT22;10442;49.932;11.592;2024-02-15T09:22:49;15.20;77.90
20568;DHT22;10442;49.932;11.592;2024-02-15T09:25:18;15.30;77.60
20568;DHT22;10442;49.932;11.592;2024-02-15T09:27:46;15.20;77.50
20568;DHT22;10442;49.932;11.592;2024-02-15T09:30:16;15.20;77.40
20568;DHT22;10442;49.932;11.592;2024-02-15T09:32:45;15.20;77.50
20568;DHT22;10442;49.932;11.592;2024-02-15T09:35:13;15.20;77.70
20568;DHT22;10442;49.932;11.592;2024-02-15T09:37:46;15.30;77.90
20568;DHT22;10442;49.932;11.592;2024-02-15T09:40:18;15.30;78.10
20568;DHT22;10442;49.932;11.592;2024-02-15T09:42:47;15.30;78.20
20568;DHT22;10442;49.932;11.592;2024-02-15T09:45:16;15.40;78.30
20568;DHT22;10442;49.932;11.592;2024-02-15T09:47:46;15.40;77.90
20568;DHT22;10442;49.932;11.592;2024-02-15T09:50:16;15.50;77.80
20568;DHT22;10442;49.932;11.592;2024-02-15T09:52:54;15.50;77.90
20568;DHT22;10442;49.932;11.592;2024-02-15T09:55:22;15.60;77.80
20568;DHT22;10442;49.932;11.592;2024-02-15T09:57:51;15.70;77.70
20568;DHT22;10442;49.932;11.592;2024-02-15T10:00:20;15.70;77.40
20568;DHT22;10442;49.932;11.592;2024-02-15T10:02:50;15.80;77.30
20568;DHT22;10442;49.932;11.592;2024-02-15T10:05:20;15.80;76.70
20568;DHT22;10442;49.932;11.592;2024-02-15T10:07:49;15.90;76.40
20568;DHT22;10442;49.932;11.592;2024-02-15T10:10:24;15.90;76.10
20568;DHT22;10442;49.932;11.592;2024-02-15T10:12:54;16.00;76.00
20568;DHT22;10442;49.932;11.592;2024-02-15T10:15:31;16.00;76.10
20568;DHT22;10442;49.932;11.592;2024-02-15T10:18:02;16.00;76.00
20568;DHT22;10442;49.932;11.592;2024-02-15T10:20:31;16.10;76.30
20568;DHT22;10442;49.932;11.592;2024-02-15T10:25:38;16.20;76.00
20568;DHT22;10442;49.932;11.592;2024-02-15T10:28:21;16.20;75.40
20568;DHT22;10442;49.932;11.592;2024-02-15T10:30:55;16.20;75.60
20568;DHT22;10442;49.932;11.592;2024-02-15T10:33:30;16.20;75.30
20568;DHT22;10442;49.932;11.592;2024-02-15T10:36:07;16.30;75.20
20568;DHT22;10442;49.932;11.592;2024-02-15T10:38:42;16.30;75.50
20568;DHT22;10442;49.932;11.592;2024-02-15T10:41:11;16.30;75.80
20568;DHT22;10442;49.932;11.592;2024-02-15T10:43:39;16.30;75.10
20568;DHT22;10442;49.932;11.592;2024-02-15T10:46:12;16.30;75.60
20568;DHT22;10442;49.932;11.592;2024-02-15T10:48:40;16.40;75.30
20568;DHT22;10442;49.932;11.592;2024-02-15T10:51:12;16.40;75.70
20568;DHT22;10442;49.932;11.592;2024-02-15T10:53:47;16.50;75.90
20568;DHT22;10442;49.932;11.592;2024-02-15T10:56:23;16.60;75.40
20568;DHT22;10442;49.932;11.592;2024-02-15T10:59:17;16.60;75.20
20568;DHT22;10442;49.932;11.592;2024-02-15T11:01:46;16.70;75.00
20568;DHT22;10442;49.932;11.592;2024-02-15T11:04:20;16.80;75.30
20568;DHT22;10442;49.932;11.592;2024-02-15T11:06:54;16.90;74.80
20568;DHT22;10442;49.932;11.592;2024-02-15T11:09:23;17.00;74.60
20568;DHT22;10442;49.932;11.592;2024-02-15T11:11:53;17.10;74.50
20568;DHT22;10442;49.932;11.592;2024-02-15T11:14:31;17.20;74.10
20568;DHT22;10442;49.932;11.592;2024-02-15T11:17:01;17.30;73.50
20568;DHT22;10442;49.932;11.592;2024-02-15T11:22:09;17.50;72.70
20568;DHT22;10442;49.932;11.592;2024-02-15T11:24:49;17.60;72.40
20568;DHT22;10442;49.932;11.592;2024-02-15T11:27:28;17.60;72.20
20568;DHT22;10442;49.932;11.592;2024-02-15T11:29:58;17.70;72.20
20568;DHT22;10442;49.932;11.592;2024-02-15T11:35:16;17.80;71.80
20568;DHT22;10442;49.932;11.592;2024-02-15T11:40:20;17.90;71.60
20568;DHT22;10442;49.932;11.592;2024-02-15T11:42:58;17.90;72.40
20568;DHT22;10442;49.932;11.592;2024-02-15T11:45:29;18.00;71.40
20568;DHT22;10442;49.932;11.592;2024-02-15T11:48:11;18.00;71.00
20568;DHT22;10442;49.932;11.592;2024-02-15T11:50:41;18.10;70.80
20568;DHT22;10442;49.932;11.592;2024-02-15T11:53:09;18.10;70.50
20568;DHT22;10442;49.932;11.592;2024-02-15T11:55:40;18.10;70.70
20568;DHT22;10442;49.932;11.592;2024-02-15T11:58:09;18.20;70.70
20568;DHT22;10442;49.932;11.592;2024-02-15T12:00:40;18.20;70.30
20568;DHT22;10442;49.932;11.592;2024-02-15T12:03:28;18.20;70.00
20568;DHT22;10442;49.932;11.592;2024-02-15T12:06:30;18.30;70.20
20568;DHT22;10442;49.932;11.592;2024-02-15T12:09:18;18.30;69.80
20568;DHT22;10442;49.932;11.592;2024-02-15T12:12:09;18.40;69.80
20568;DHT22;10442;49.932;11.592;2024-02-15T12:15:03;18.40;69.50
20568;DHT22;10442;49.932;11.592;2024-02-15T12:17:51;18.40;68.60
20568;DHT22;10442;49.932;11.592;2024-02-15T12:20:38;18.40;68.20
20568;DHT22;10442;49.932;11.592;2024-02-15T12:23:06;18.50;68.00
20568;DHT22;10442;49.932;11.592;2024-02-15T12:25:36;18.40;68.50
20568;DHT22;10442;49.932;11.592;2024-02-15T12:28:06;18.50;68.20
20568;DHT22;10442;49.932;11.592;2024-02-15T12:30:34;18.40;68.50
20568;DHT22;10442;49.932;11.592;2024-02-15T12:33:11;18.40;68.10
20568;DHT22;10442;49.932;11.592;2024-02-15T12:35:41;18.40;68.00
20568;DHT22;10442;49.932;11.592;2024-02-15T12:38:12;18.40;68.10
20568;DHT22;10442;49.932;11.592;2024-02-15T12:40:44;18.30;68.20
20568;DHT22;10442;49.932;11.592;2024-02-15T12:43:15;18.30;68.30
20568;DHT22;10442;49.932;11.592;2024-02-15T12:45:43;18.30;68.10
20568;DHT22;10442;49.932;11.592;2024-02-15T12:48:11;18.30;68.10
20568;DHT22;10442;49.932;11.592;2024-02-15T12:50:39;18.30;68.30
20568;DHT22;10442;49.932;11.592;2024-02-15T12:53:07;18.30;68.20
20568;DHT22;10442;49.932;11.592;2024-02-15T12:55:37;18.40;67.80
20568;DHT22;10442;49.932;11.592;2024-02-15T12:58:12;18.40;67.70
20568;DHT22;10442;49.932;11.592;2024-02-15T13:00:43;18.40;67.40
20568;DHT22;10442;49.932;11.592;2024-02-15T13:03:12;18.40;67.00
20568;DHT22;10442;49.932;11.592;2024-02-15T13:05:43;18.40;66.90
20568;DHT22;10442;49.932;11.592;2024-02-15T13:08:13;18.40;67.10
20568;DHT22;10442;49.932;11.592;2024-02-15T13:10:42;18.40;67.30
20568;DHT22;10442;49.932;11.592;2024-02-15T13:13:13;18.40;67.40
20568;DHT22;10442;49.932;11.592;2024-02-15T13:15:42;18.30;66.90
20568;DHT22;10442;49.932;11.592;2024-02-15T13:18:10;18.30;67.30
20568;DHT22;10442;49.932;11.592;2024-02-15T13:20:40;18.30;67.00
20568;DHT22;10442;49.932;11.592;2024-02-15T13:23:09;18.30;66.60
20568;DHT22;10442;49.932;11.592;2024-02-15T13:25:54;18.40;66.70
20568;DHT22;10442;49.932;11.592;2024-02-15T13:28:24;18.40;66.40
20568;DHT22;10442;49.932;11.592;2024-02-15T13:30:52;18.40;67.00
20568;DHT22;10442;49.932;11.592;2024-02-15T13:33:23;18.30;67.10
20568;DHT22;10442;49.932;11.592;2024-02-15T13:35:54;18.30;67.60
20568;DHT22;10442;49.932;11.592;2024-02-15T13:38:22;18.30;67.40
20568;DHT22;10442;49.932;11.592;2024-02-15T13:40:51;18.30;67.30
20568;DHT22;10442;49.932;11.592;2024-02-15T13:43:23;18.30;67.50
20568;DHT22;10442;49.932;11.592;2024-02-15T13:45:53;18.30;66.90
20568;DHT22;10442;49.932;11.592;2024-02-15T13:48:21;18.20;66.60
20568;DHT22;10442;49.932;11.592;2024-02-15T13:50:52;18.20;66.90
20568;DHT22;10442;49.932;11.592;2024-02-15T13:53:21;18.10;67.00
20568;DHT22;10442;49.932;11.592;2024-02-15T13:55:52;18.00;67.20
20568;DHT22;10442;49.932;11.592;2024-02-15T13:58:21;18.00;67.40
20568;DHT22;10442;49.932;11.592;2024-02-15T14:00:49;17.90;67.20
20568;DHT22;10442;49.932;11.592;2024-02-15T14:03:19;17.80;67.20
20568;DHT22;10442;49.932;11.592;2024-02-15T14:05:49;17.80;67.40
20568;DHT22;10442;49.932;11.592;2024-02-15T14:08:17;17.70;67.50
20568;DHT22;10442;49.932;11.592;2024-02-15T14:10:46;17.60;67.90
20568;DHT22;10442;49.932;11.592;2024-02-15T14:13:15;17.60;68.20
20568;DHT22;10442;49.932;11.592;2024-02-15T14:15:44;17.60;68.40
20568;DHT22;10442;49.932;11.592;2024-02-15T14:18:13;17.50;68.60
20568;DHT22;10442;49.932;11.592;2024-02-15T14:20:44;17.50;68.60
20568;DHT22;10442;49.932;11.592;2024-02-15T14:23:15;17.50;68.60
20568;DHT22;10442;49.932;11.592;2024-02-15T14:25:43;17.50;68.80
20568;DHT22;10442;49.932;11.592;2024-02-15T14:28:13;17.40;68.60
20568;DHT22;10442;49.932;11.592;2024-02-15T14:30:43;17.40;68.40
20568;DHT22;10442;49.932;11.592;2024-02-15T14:33:30;17.40;68.60
20568;DHT22;10442;49.932;11.592;2024-02-15T14:36:02;17.40;68.60
20568;DHT22;10442;49.932;11.592;2024-02-15T14:38:31;17.40;68.40
20568;DHT22;10442;49.932;11.592;2024-02-15T14:41:04;17.30;68.10
20568;DHT22;10442;49.932;11.592;2024-02-15T14:43:35;17.30;68.00
20568;DHT22;10442;49.932;11.592;2024-02-15T14:46:03;17.30;67.90
20568;DHT22;10442;49.932;11.592;2024-02-15T14:48:33;17.40;67.80
20568;DHT22;10442;49.932;11.592;2024-02-15T14:51:02;17.30;67.50
20568;DHT22;10442;49.932;11.592;2024-02-15T14:53:31;17.30;67.30
20568;DHT22;10442;49.932;11.592;2024-02-15T14:55:59;17.30;67.20
20568;DHT22;10442;49.932;11.592;2024-02-15T14:58:26;17.20;67.30
20568;DHT22;10442;49.932;11.592;2024-02-15T15:00:54;17.20;67.10
20568;DHT22;10442;49.932;11.592;2024-02-15T15:03:24;17.20;67.40
20568;DHT22;10442;49.932;11.592;2024-02-15T15:05:56;17.20;67.20
20568;DHT22;10442;49.932;11.592;2024-02-15T15:08:42;17.20;67.00
20568;DHT22;10442;49.932;11.592;2024-02-15T15:11:29;17.20;66.80
20568;DHT22;10442;49.932;11.592;2024-02-15T15:14:16;17.10;67.10
20568;DHT22;10442;49.932;11.592;2024-02-15T15:16:45;17.20;67.50
20568;DHT22;10442;49.932;11.592;2024-02-15T15:19:12;17.10;67.10
20568;DHT22;10442;49.932;11.592;2024-02-15T15:21:40;17.10;67.10
20568;DHT22;10442;49.932;11.592;2024-02-15T15:24:10;17.10;67.50
20568;DHT22;10442;49.932;11.592;2024-02-15T15:26:38;17.10;67.50
20568;DHT22;10442;49.932;11.592;2024-02-15T15:29:05;17.00;67.60
20568;DHT22;10442;49.932;11.592;2024-02-15T15:31:33;17.00;67.80
20568;DHT22;10442;49.932;11.592;2024-02-15T15:34:03;17.00;67.80
20568;DHT22;10442;49.932;11.592;2024-02-15T15:36:31;16.90;67.50
20568;DHT22;10442;49.932;11.592;2024-02-15T15:39:00;16.90;67.80
20568;DHT22;10442;49.932;11.592;2024-02-15T15:41:36;16.80;68.00
20568;DHT22;10442;49.932;11.592;2024-02-15T15:44:05;16.80;68.40
20568;DHT22;10442;49.932;11.592;2024-02-15T15:46:32;16.70;68.40